Aérodrome :
LOGIN :

S'inscrire | Disclaimer

   EN    FR    IT 

 










Légende :    VFR   VFR Marginal   IFR   IFR Intensif   IFR Très Intensif
Visi : 
Plafond : 
>= 8 km
>= 3000ft
5 à 8 km
1000 à 3000 ft
1500m à 5 km
500 à 1000 ft
800 à 1500m
200 à 500 ft
< 800m
< 200 ft
Symboles :   Orages  Brouillard  Fortes neiges  Fortes précipitations  Vent > 20 kt
SIGMETs :   Divers  Orages  Givrage  Turbulence  Onde Orograph.  Cendres Volcan.






- Altitude de l'aérodrome : 1084 ft
- Code IATA : EPL


LFSG - Épinal-Mirecourt

DERNIER METAR :
  • 282230Z AUTO VRB03KT 0450 0400 R26/0750U FG VV/// 01/01 Q1014

METARs EXPIRÉS :
  • 282200Z AUTO 00000KT 8000 FEW028 BKN200 03/03 Q1014
  • 282130Z AUTO 00000KT 1200 R26/1300D BR FEW006 SCT200 02/02 Q1014
  • 282100Z AUTO 21005KT 9999 NSC 04/03 Q1014
  • 282030Z AUTO VRB02KT 9999 SCT008 04/04 Q1014
  • 282000Z AUTO VRB02KT 9999 FEW009 04/04 Q1014

TAF N/A



MET'MAP, la Météo Aéronautique d'un coup d'oeil ! - Copyright ORBIFLY Décembre 2007 - Disclaimer

ORBIFLY MET'MAP TEAM :

Programmation & Développement : Alexandra Zaïnal
Sur une idée originale de : Baudouin d'Aumeries
Soutien technique & logistique : Manuel Goepfert
Assistance : Marc-Olivier Méhu




SOURCES & CREDITS :

   NOAA